Time;durP1;ratioP1;P1;durP2;ratioP2;P2;SDS_P1;SDS_P2;PMS_P1;PMS_P2;Temp;Humidity;BMP_temperature;BMP_pressure;BME280_temperature;BME280_humidity;BME280_pressure;Samples;Min_cycle;Max_cycle;Signal;HPM_P1;HPM_P2
2022/06/19 00:01:16;;;;;;;16.50;6.15;;;13.00;97.80;;;;;;5012858;28;20041;-46
2022/06/19 00:03:48;;;;;;;12.45;5.47;;;13.00;97.90;;;;;;5014303;28;20030;-53
2022/06/19 00:06:15;;;;;;;12.25;5.25;;;12.90;98.00;;;;;;5014420;28;20026;-47
2022/06/19 00:08:41;;;;;;;17.85;6.10;;;13.00;98.20;;;;;;5014171;28;20029;-51
2022/06/19 00:11:10;;;;;;;13.20;6.10;;;12.90;97.90;;;;;;5014383;28;20707;-56
2022/06/19 00:13:36;;;;;;;12.48;5.93;;;12.90;98.20;;;;;;5014164;28;20034;-53
2022/06/19 00:16:02;;;;;;;15.68;6.25;;;12.90;98.20;;;;;;5014130;28;20105;-59
2022/06/19 00:18:28;;;;;;;11.95;6.20;;;12.90;98.50;;;;;;5014181;28;20049;-54
2022/06/19 00:20:53;;;;;;;12.02;5.68;;;13.00;98.50;;;;;;5014257;28;20014;-51
2022/06/19 00:23:19;;;;;;;12.50;5.70;;;13.00;98.20;;;;;;5014083;28;20396;-57
2022/06/19 00:25:45;;;;;;;13.77;6.82;;;13.00;98.50;;;;;;5013796;28;20022;-49
2022/06/19 00:28:11;;;;;;;13.63;5.43;;;13.00;98.30;;;;;;5014152;28;20112;-54
2022/06/19 00:30:37;;;;;;;15.93;5.32;;;13.10;98.20;;;;;;5013900;28;20070;-51
2022/06/19 00:33:04;;;;;;;17.85;6.20;;;13.10;98.30;;;;;;5013903;28;20100;-50
2022/06/19 00:35:30;;;;;;;12.38;5.72;;;13.10;98.10;;;;;;5013618;28;20030;-50
2022/06/19 00:37:56;;;;;;;9.15;5.25;;;13.10;98.40;;;;;;5013601;28;20071;-48
2022/06/19 00:40:24;;;;;;;12.15;5.30;;;13.10;97.80;;;;;;5013814;28;20030;-49
2022/06/19 00:42:50;;;;;;;11.38;5.25;;;13.10;98.10;;;;;;5013799;28;20022;-46
2022/06/19 00:45:36;;;;;;;12.63;5.32;;;13.00;97.90;;;;;;5013710;28;20103;-50
2022/06/19 00:48:16;;;;;;;15.07;6.35;;;13.10;97.90;;;;;;5013949;28;20041;-54
2022/06/19 00:50:45;;;;;;;11.93;5.95;;;13.10;98.20;;;;;;5013946;28;20038;-55
2022/06/19 00:53:27;;;;;;;13.02;5.43;;;13.20;98.30;;;;;;5013488;28;20495;-46
2022/06/19 00:55:53;;;;;;;15.55;5.70;;;13.10;98.20;;;;;;5013370;28;20034;-49
2022/06/19 00:58:33;;;;;;;10.30;5.70;;;13.20;98.70;;;;;;5013372;28;20103;-52
2022/06/19 01:01:04;;;;;;;11.38;6.38;;;13.10;98.40;;;;;;5013502;28;20422;-46
2022/06/19 01:03:40;;;;;;;11.00;6.32;;;13.20;99.10;;;;;;5011920;28;20022;-49
2022/06/19 01:06:07;;;;;;;14.63;6.63;;;13.20;99.00;;;;;;5012276;28;20033;-50
2022/06/19 01:08:33;;;;;;;13.95;6.85;;;13.20;98.80;;;;;;5013075;28;20029;-53
2022/06/19 01:10:59;;;;;;;14.07;7.88;;;13.20;98.90;;;;;;5011322;28;20046;-51
2022/06/19 01:13:29;;;;;;;14.93;7.18;;;13.20;98.70;;;;;;5012973;28;20053;-48
2022/06/19 01:15:55;;;;;;;13.52;7.15;;;13.20;98.50;;;;;;5012831;28;20030;-62
2022/06/19 01:18:22;;;;;;;14.48;8.20;;;13.30;98.60;;;;;;5012833;28;20026;-58
2022/06/19 01:20:52;;;;;;;14.77;7.57;;;13.30;98.70;;;;;;5028249;28;20132;-51
2022/06/19 01:23:41;;;;;;;17.60;7.90;;;13.30;98.90;;;;;;5013034;28;20473;-52
2022/06/19 01:26:12;;;;;;;14.57;7.90;;;13.30;98.40;;;;;;5012809;28;20477;-56
2022/06/19 01:28:56;;;;;;;15.82;7.90;;;13.30;98.60;;;;;;5013002;28;20038;-49
2022/06/19 01:31:27;;;;;;;13.50;6.30;;;13.30;98.90;;;;;;5012738;28;20035;-52
2022/06/19 01:34:01;;;;;;;11.80;6.20;;;13.20;98.10;;;;;;5012644;28;20018;-52
2022/06/19 01:36:29;;;;;;;13.18;5.43;;;13.20;97.70;;;;;;5012487;28;20131;-54
2022/06/19 01:38:55;;;;;;;18.17;6.10;;;13.00;97.60;;;;;;5012556;28;20026;-56
2022/06/19 01:41:31;;;;;;;13.68;5.93;;;12.90;97.40;;;;;;5012641;28;20059;-54
2022/06/19 01:43:57;;;;;;;11.57;5.85;;;12.90;97.60;;;;;;5012514;28;20030;-47
2022/06/19 01:46:24;;;;;;;13.48;4.78;;;12.80;97.60;;;;;;5012346;28;20033;-58
2022/06/19 01:48:51;;;;;;;10.43;4.30;;;12.70;96.80;;;;;;5012627;28;20037;-49
2022/06/19 01:51:17;;;;;;;11.50;3.60;;;12.60;97.00;;;;;;5012490;28;20065;-49
2022/06/19 01:53:50;;;;;;;11.25;3.10;;;12.50;96.90;;;;;;5012291;28;20077;-57
2022/06/19 01:56:16;;;;;;;11.00;3.03;;;12.40;96.70;;;;;;5011964;28;20087;-52
2022/06/19 01:58:47;;;;;;;10.70;2.28;;;12.30;97.60;;;;;;5012154;28;20378;-55
2022/06/19 02:01:12;;;;;;;6.32;1.85;;;12.30;95.20;;;;;;5012594;28;20080;-59
2022/06/19 02:03:46;;;;;;;10.05;2.05;;;12.20;95.70;;;;;;5012015;28;20485;-52
2022/06/19 02:06:15;;;;;;;7.22;1.77;;;12.10;94.90;;;;;;5011830;28;20021;-53
2022/06/19 02:08:42;;;;;;;9.48;2.10;;;12.00;95.80;;;;;;5012040;28;20481;-51
2022/06/19 02:11:11;;;;;;;7.57;2.25;;;11.90;96.00;;;;;;5012130;28;20029;-53
2022/06/19 02:13:38;;;;;;;15.35;1.98;;;11.90;95.90;;;;;;5011735;28;20050;-54
2022/06/19 02:16:08;;;;;;;7.97;1.60;;;11.90;96.00;;;;;;5011903;28;20033;-53
2022/06/19 02:18:37;;;;;;;6.75;2.05;;;11.80;96.40;;;;;;5011843;28;20105;-55
2022/06/19 02:21:06;;;;;;;9.55;1.85;;;11.80;96.50;;;;;;5010608;28;20389;-53
2022/06/19 02:23:36;;;;;;;7.22;1.70;;;11.80;95.90;;;;;;5010697;28;20029;-57
2022/06/19 02:26:05;;;;;;;8.48;2.10;;;11.70;96.20;;;;;;5011934;28;20041;-55
2022/06/19 02:28:35;;;;;;;4.77;1.43;;;11.70;96.40;;;;;;5012024;28;20026;-57
2022/06/19 02:31:01;;;;;;;6.95;2.25;;;11.70;96.30;;;;;;5010861;28;20066;-53
2022/06/19 02:33:30;;;;;;;8.70;1.77;;;11.70;96.70;;;;;;5011608;28;20069;-60
2022/06/19 02:35:56;;;;;;;7.57;1.70;;;11.70;96.50;;;;;;5011480;28;20484;-50
2022/06/19 02:38:22;;;;;;;7.47;1.75;;;11.70;96.30;;;;;;5011914;28;20040;-53
2022/06/19 02:41:09;;;;;;;6.90;2.33;;;11.70;96.70;;;;;;5011545;28;20476;-57
2022/06/19 02:43:35;;;;;;;6.05;1.80;;;11.70;96.90;;;;;;5011588;28;20080;-51
2022/06/19 02:46:06;;;;;;;8.43;1.80;;;11.70;96.10;;;;;;5011683;28;20489;-48
2022/06/19 02:48:32;;;;;;;7.82;2.28;;;11.70;96.50;;;;;;5006129;28;20030;-45
2022/06/19 02:51:00;;;;;;;7.18;1.85;;;11.70;96.20;;;;;;5009905;28;20041;-44
2022/06/19 02:53:26;;;;;;;7.22;1.75;;;11.60;96.40;;;;;;5011086;28;20027;-60
2022/06/19 02:55:52;;;;;;;5.60;1.80;;;11.70;96.60;;;;;;5011494;28;20033;-59
2022/06/19 02:58:19;;;;;;;6.50;2.20;;;11.70;96.60;;;;;;5010954;28;20034;-52
2022/06/19 03:00:46;;;;;;;6.00;1.83;;;11.70;97.30;;;;;;5011452;28;20116;-52
2022/06/19 03:03:34;;;;;;;7.88;1.98;;;11.80;96.80;;;;;;5010881;28;20026;-54
2022/06/19 03:06:00;;;;;;;6.63;1.83;;;11.80;96.50;;;;;;5010946;28;20026;-56
2022/06/19 03:08:25;;;;;;;11.57;2.10;;;11.80;97.10;;;;;;5011228;28;20040;-50
2022/06/19 03:10:51;;;;;;;10.10;2.15;;;11.80;97.40;;;;;;5011171;28;20503;-58
2022/06/19 03:13:18;;;;;;;9.05;2.58;;;11.80;96.70;;;;;;5010336;28;20500;-54
2022/06/19 03:15:44;;;;;;;6.00;2.00;;;11.80;96.30;;;;;;5010964;28;20497;-59
2022/06/19 03:18:10;;;;;;;8.95;2.47;;;11.70;96.70;;;;;;5011248;28;20026;-52
2022/06/19 03:20:35;;;;;;;6.15;2.10;;;11.80;97.30;;;;;;5011051;28;20022;-57
2022/06/19 03:23:01;;;;;;;8.13;2.40;;;11.80;97.10;;;;;;5011001;28;20417;-51
2022/06/19 03:25:27;;;;;;;6.47;2.20;;;11.70;96.90;;;;;;5009757;28;20041;-57
2022/06/19 03:27:52;;;;;;;6.93;2.58;;;11.70;96.80;;;;;;5011164;28;20496;-46
2022/06/19 03:30:19;;;;;;;5.95;2.30;;;11.70;96.40;;;;;;5010940;28;20374;-58
2022/06/19 03:32:45;;;;;;;6.82;2.40;;;11.70;97.10;;;;;;5010807;28;20018;-53
2022/06/19 03:35:12;;;;;;;11.25;2.70;;;11.80;97.20;;;;;;5013323;28;20041;-55
2022/06/19 03:37:39;;;;;;;8.00;2.50;;;11.80;97.10;;;;;;5015042;28;20693;-54
2022/06/19 03:40:06;;;;;;;6.55;2.30;;;11.80;96.80;;;;;;5015032;28;20033;-60
2022/06/19 03:42:32;;;;;;;7.15;2.58;;;11.80;97.60;;;;;;5014227;28;20432;-55
2022/06/19 03:44:58;;;;;;;10.13;2.95;;;11.90;96.70;;;;;;5014626;28;20113;-57
2022/06/19 03:47:25;;;;;;;8.48;2.83;;;11.90;97.10;;;;;;5014754;28;20101;-47
2022/06/19 03:49:52;;;;;;;7.43;2.60;;;11.90;96.50;;;;;;5014431;28;20064;-53
2022/06/19 03:52:18;;;;;;;8.38;2.55;;;11.90;96.80;;;;;;5014669;28;20488;-52
2022/06/19 03:54:44;;;;;;;8.38;2.35;;;11.90;96.70;;;;;;5014863;28;20432;-60
2022/06/19 03:57:12;;;;;;;11.02;2.75;;;11.90;97.30;;;;;;5014622;28;20117;-54
2022/06/19 03:59:38;;;;;;;9.52;2.60;;;11.90;96.50;;;;;;5014249;28;20026;-56
2022/06/19 04:02:04;;;;;;;7.75;2.60;;;11.90;96.00;;;;;;5014699;28;20022;-51
2022/06/19 04:04:30;;;;;;;9.98;3.28;;;11.90;96.60;;;;;;5014443;28;20080;-52
2022/06/19 04:06:56;;;;;;;10.95;3.28;;;11.90;96.70;;;;;;5014474;28;20071;-46
2022/06/19 04:09:22;;;;;;;9.57;2.90;;;11.80;96.80;;;;;;5014086;28;20128;-52
2022/06/19 04:11:48;;;;;;;9.35;2.78;;;11.80;96.20;;;;;;5000565;28;20042;-49
2022/06/19 04:14:15;;;;;;;7.90;2.85;;;11.80;96.40;;;;;;5014580;28;20081;-53
2022/06/19 04:16:45;;;;;;;5.85;2.15;;;11.80;96.30;;;;;;5014343;28;20036;-54
2022/06/19 04:19:12;;;;;;;8.77;2.80;;;11.80;96.60;;;;;;5013897;28;20022;-49
2022/06/19 04:21:45;;;;;;;6.68;2.55;;;11.80;96.70;;;;;;5013805;28;20034;-49
2022/06/19 04:24:14;;;;;;;7.60;2.33;;;11.80;97.20;;;;;;5014071;28;20554;-48
2022/06/19 04:26:41;;;;;;;12.13;2.57;;;11.90;97.00;;;;;;5014284;28;20116;-55
2022/06/19 04:29:09;;;;;;;4.72;2.20;;;11.90;97.20;;;;;;5013642;28;20400;-54
2022/06/19 04:31:35;;;;;;;9.18;2.90;;;11.90;97.00;;;;;;5013968;28;20038;-54
2022/06/19 04:34:01;;;;;;;9.32;2.50;;;11.90;97.30;;;;;;5013983;28;20022;-54
2022/06/19 04:36:28;;;;;;;12.60;2.40;;;11.90;96.50;;;;;;5014060;28;20030;-50
2022/06/19 04:38:56;;;;;;;9.07;3.03;;;12.00;96.90;;;;;;5013388;28;20033;-55
2022/06/19 04:41:43;;;;;;;8.50;2.42;;;12.00;96.70;;;;;;5014187;28;20030;-52
2022/06/19 04:44:12;;;;;;;5.20;2.05;;;12.00;96.00;;;;;;5014019;28;20026;-56
2022/06/19 04:46:39;;;;;;;10.18;2.13;;;12.00;96.30;;;;;;5012937;28;20041;-47
2022/06/19 04:49:05;;;;;;;6.70;2.10;;;12.00;96.70;;;;;;5012937;28;20544;-55
2022/06/19 04:51:31;;;;;;;8.18;2.15;;;12.10;96.50;;;;;;5013329;28;20464;-60
2022/06/19 04:53:56;;;;;;;7.38;2.00;;;12.00;95.90;;;;;;5013455;28;20018;-55
2022/06/19 04:56:22;;;;;;;10.75;2.25;;;12.00;96.10;;;;;;5013850;28;20396;-54
2022/06/19 04:58:49;;;;;;;10.57;2.20;;;12.00;96.60;;;;;;5013452;28;20049;-54
2022/06/19 05:01:25;;;;;;;7.30;1.98;;;12.00;96.10;;;;;;5012093;28;20028;-55
2022/06/19 05:03:53;;;;;;;5.15;2.00;;;12.00;96.80;;;;;;5008995;28;20189;-57
2022/06/19 05:06:19;;;;;;;7.72;2.33;;;12.00;97.60;;;;;;5013087;28;20109;-57
2022/06/19 05:08:45;;;;;;;9.27;2.80;;;12.00;97.40;;;;;;5013287;28;20026;-49
2022/06/19 05:11:12;;;;;;;7.80;1.85;;;12.00;96.70;;;;;;5012809;28;20096;-57
2022/06/19 05:13:38;;;;;;;11.35;2.63;;;12.00;97.20;;;;;;5012997;28;20516;-53
2022/06/19 05:16:06;;;;;;;9.15;2.25;;;12.10;97.30;;;;;;5013083;28;20057;-51
2022/06/19 05:18:34;;;;;;;9.48;2.28;;;12.10;97.20;;;;;;5013046;28;20052;-54
2022/06/19 05:21:04;;;;;;;7.07;2.10;;;12.00;96.70;;;;;;5012791;28;20037;-53
2022/06/19 05:23:34;;;;;;;12.15;2.35;;;12.10;97.10;;;;;;5012810;28;20480;-55
2022/06/19 05:26:17;;;;;;;9.85;2.30;;;12.10;96.40;;;;;;5013013;28;20049;-57
2022/06/19 05:28:44;;;;;;;10.77;3.08;;;12.10;96.20;;;;;;5012920;28;20052;-58
2022/06/19 05:31:10;;;;;;;9.55;2.40;;;12.10;96.00;;;;;;5012454;28;20044;-58
2022/06/19 05:33:35;;;;;;;11.30;2.65;;;12.10;95.80;;;;;;5012694;28;20014;-58
2022/06/19 05:36:03;;;;;;;14.70;2.50;;;12.10;96.20;;;;;;5012680;28;20164;-50
2022/06/19 05:38:29;;;;;;;12.80;2.40;;;12.10;97.10;;;;;;5012784;28;20071;-55
2022/06/19 05:40:57;;;;;;;12.75;2.80;;;12.20;95.80;;;;;;5012473;28;20439;-54
2022/06/19 05:43:24;;;;;;;13.65;2.83;;;12.30;96.30;;;;;;5012467;28;20160;-50
2022/06/19 05:45:52;;;;;;;10.48;2.33;;;12.30;96.50;;;;;;5012660;28;20492;-56
2022/06/19 05:48:18;;;;;;;13.63;2.78;;;12.30;96.30;;;;;;5012048;28;20022;-51
2022/06/19 05:50:44;;;;;;;10.57;2.40;;;12.30;95.40;;;;;;5012410;28;20037;-49
2022/06/19 05:53:10;;;;;;;11.32;2.90;;;12.30;95.60;;;;;;5012375;28;20037;-46
2022/06/19 05:55:35;;;;;;;11.35;2.28;;;12.30;96.00;;;;;;5012408;28;20026;-48
2022/06/19 05:58:01;;;;;;;11.68;2.42;;;12.30;96.40;;;;;;5011997;28;20017;-51
2022/06/19 06:00:27;;;;;;;14.75;2.70;;;12.40;95.90;;;;;;5012360;28;20374;-45
2022/06/19 06:02:52;;;;;;;13.07;2.70;;;12.40;96.20;;;;;;5012441;28;20030;-45
2022/06/19 06:05:18;;;;;;;15.95;3.00;;;12.40;96.40;;;;;;5012091;28;20068;-47
2022/06/19 06:07:44;;;;;;;13.00;2.83;;;12.40;95.50;;;;;;5012271;28;20061;-53
2022/06/19 06:10:11;;;;;;;9.75;2.95;;;12.40;95.80;;;;;;5011819;28;20056;-57
2022/06/19 06:12:36;;;;;;;12.95;2.92;;;12.50;95.70;;;;;;5012078;28;20052;-62
2022/06/19 06:15:02;;;;;;;13.18;2.70;;;12.40;95.80;;;;;;5012061;28;20101;-50
2022/06/19 06:17:28;;;;;;;9.90;2.40;;;12.50;95.90;;;;;;5012105;28;20061;-56
2022/06/19 06:19:54;;;;;;;11.32;2.72;;;12.50;96.40;;;;;;5011573;28;20101;-53
2022/06/19 06:22:19;;;;;;;8.48;2.17;;;12.50;95.40;;;;;;5011580;28;20087;-53
2022/06/19 06:24:45;;;;;;;12.95;2.90;;;12.60;95.80;;;;;;5011925;28;20093;-49
2022/06/19 06:27:10;;;;;;;13.75;2.92;;;12.60;95.70;;;;;;5011932;28;20034;-48
2022/06/19 06:29:36;;;;;;;14.95;2.72;;;12.60;95.90;;;;;;5011391;28;20022;-49
2022/06/19 06:32:02;;;;;;;16.08;3.20;;;12.70;96.30;;;;;;5011765;28;20485;-49
2022/06/19 06:34:28;;;;;;;12.88;2.92;;;12.70;95.20;;;;;;5012066;28;20017;-54
2022/06/19 06:36:53;;;;;;;14.23;3.10;;;12.80;95.00;;;;;;5011694;28;20038;-56
2022/06/19 06:39:20;;;;;;;13.30;3.03;;;12.70;94.80;;;;;;5011504;28;20069;-54
2022/06/19 06:41:46;;;;;;;12.00;3.25;;;12.80;95.50;;;;;;5011500;28;20045;-48
2022/06/19 06:44:15;;;;;;;15.98;2.85;;;12.80;94.70;;;;;;5011661;28;20030;-55
2022/06/19 06:46:41;;;;;;;10.30;3.17;;;12.80;94.10;;;;;;5011678;28;20025;-51
2022/06/19 06:49:07;;;;;;;14.90;3.13;;;12.80;95.40;;;;;;5011499;28;20030;-56
2022/06/19 06:51:33;;;;;;;14.15;3.17;;;12.80;94.40;;;;;;5011263;28;20096;-48
2022/06/19 06:53:59;;;;;;;14.90;2.95;;;12.90;94.60;;;;;;5011221;28;20150;-55
2022/06/19 06:56:29;;;;;;;16.52;3.33;;;12.90;94.50;;;;;;5011454;28;20025;-48
2022/06/19 06:58:54;;;;;;;;;;;12.90;95.00;;;;;;5011778;28;20030;-52
2022/06/19 07:01:22;;;;;;;14.73;3.67;;;13.00;94.60;;;;;;5010988;28;19909;-54
2022/06/19 07:03:54;;;;;;;13.27;3.05;;;13.00;94.70;;;;;;5011366;28;20022;-49
2022/06/19 07:06:21;;;;;;;13.57;3.05;;;13.00;94.90;;;;;;5011258;28;20017;-53
2022/06/19 07:08:47;;;;;;;11.52;3.30;;;13.10;94.80;;;;;;5011027;28;20432;-51
2022/06/19 07:11:21;;;;;;;13.68;3.50;;;13.20;95.20;;;;;;5010657;28;20034;-51
2022/06/19 07:13:46;;;;;;;11.85;3.10;;;13.30;94.90;;;;;;5011560;28;20113;-51
2022/06/19 07:16:12;;;;;;;13.68;3.88;;;13.50;95.30;;;;;;5011204;28;20552;-53
2022/06/19 07:18:38;;;;;;;10.00;3.13;;;13.60;95.50;;;;;;5011282;28;20021;-55
2022/06/19 07:21:03;;;;;;;16.52;3.25;;;13.80;92.40;;;;;;4998647;28;20029;-51
2022/06/19 07:23:29;;;;;;;13.77;3.20;;;14.00;92.60;;;;;;5007863;28;20025;-54
2022/06/19 07:25:55;;;;;;;13.23;3.55;;;14.20;92.20;;;;;;5011242;28;20389;-47
2022/06/19 07:28:20;;;;;;;11.43;3.00;;;14.60;92.10;;;;;;5010715;28;20029;-46
2022/06/19 07:30:47;;;;;;;11.73;3.50;;;14.80;91.60;;;;;;5010838;28;20409;-55
2022/06/19 07:33:13;;;;;;;14.25;3.53;;;15.00;90.50;;;;;;5009549;28;20481;-48
2022/06/19 07:35:39;;;;;;;13.05;3.20;;;15.10;90.80;;;;;;5011052;28;20033;-46
2022/06/19 07:38:05;;;;;;;13.00;3.10;;;15.40;90.10;;;;;;5010974;28;20025;-45
2022/06/19 07:40:31;;;;;;;13.30;3.08;;;15.60;88.40;;;;;;5009367;28;20026;-46
2022/06/19 07:42:57;;;;;;;13.90;2.88;;;15.80;86.20;;;;;;5010762;28;20040;-53
2022/06/19 07:45:22;;;;;;;13.05;3.47;;;16.00;86.70;;;;;;5010837;28;20485;-52
2022/06/19 07:50:32;;;;;;;12.70;3.28;;;16.50;83.10;;;;;;5002930;28;20102;-46
2022/06/19 07:52:58;;;;;;;14.05;3.70;;;16.90;82.70;;;;;;4993508;28;20030;-52
2022/06/19 07:55:28;;;;;;;11.82;2.88;;;17.40;84.80;;;;;;4993936;28;20030;-60
2022/06/19 07:57:54;;;;;;;11.48;2.97;;;18.40;87.40;;;;;;4996031;28;20508;-55
2022/06/19 08:00:23;;;;;;;10.10;2.70;;;19.50;82.80;;;;;;5009412;28;20518;-55
2022/06/19 08:02:50;;;;;;;;;;;19.70;76.60;;;;;;4999507;28;20035;-47
2022/06/19 08:05:21;;;;;;;9.45;2.63;;;19.60;77.60;;;;;;5003863;28;19906;-57
2022/06/19 08:07:48;;;;;;;13.90;2.90;;;19.10;71.60;;;;;;4993586;28;20094;-47
2022/06/19 08:10:20;;;;;;;10.18;2.50;;;18.70;75.20;;;;;;4995820;28;20022;-55
2022/06/19 08:12:47;;;;;;;12.10;2.67;;;18.50;77.50;;;;;;4997269;28;20038;-47
2022/06/19 08:15:13;;;;;;;15.55;3.33;;;18.50;79.20;;;;;;5004130;28;20492;-50
2022/06/19 08:17:39;;;;;;;16.08;3.17;;;18.90;74.30;;;;;;4990844;28;20022;-56
2022/06/19 08:20:05;;;;;;;9.57;2.65;;;19.00;71.70;;;;;;4997380;28;20584;-53
2022/06/19 08:22:31;;;;;;;11.10;2.95;;;18.70;71.50;;;;;;5004581;28;20029;-52
2022/06/19 08:24:56;;;;;;;11.98;2.70;;;18.50;74.80;;;;;;4997338;28;20027;-47
2022/06/19 08:27:22;;;;;;;9.50;2.63;;;19.30;75.40;;;;;;4995442;28;20042;-55
2022/06/19 08:29:47;;;;;;;10.48;3.05;;;19.40;69.70;;;;;;4995151;28;20173;-52
2022/06/19 08:32:13;;;;;;;10.68;3.17;;;20.00;72.20;;;;;;5004753;28;20474;-53
2022/06/19 08:34:39;;;;;;;11.50;2.92;;;20.60;68.90;;;;;;4994398;28;20456;-48
2022/06/19 08:37:08;;;;;;;11.13;2.45;;;21.40;69.10;;;;;;4998817;28;20412;-47
2022/06/19 08:39:34;;;;;;;13.65;2.97;;;22.40;70.60;;;;;;4996109;28;20120;-49
2022/06/19 08:42:25;;;;;;;10.45;2.67;;;23.00;66.70;;;;;;4997468;28;20026;-53
2022/06/19 08:45:01;;;;;;;9.38;2.70;;;23.60;65.90;;;;;;5013256;28;20115;-50
2022/06/19 08:47:55;;;;;;;9.05;2.47;;;23.70;61.60;;;;;;5012016;28;20485;-52
2022/06/19 08:50:31;;;;;;;9.68;2.50;;;23.80;62.50;;;;;;4993954;28;20083;-48
2022/06/19 08:53:24;;;;;;;9.13;2.47;;;23.50;56.70;;;;;;5003355;28;20138;-55
2022/06/19 08:56:08;;;;;;;7.88;2.45;;;23.40;58.70;;;;;;5010414;28;20499;-49
2022/06/19 08:58:54;;;;;;;13.45;2.40;;;23.60;60.90;;;;;;5010351;28;20049;-47
2022/06/19 09:01:44;;;;;;;8.10;2.10;;;23.90;62.60;;;;;;5001724;28;20030;-46
2022/06/19 09:07:33;;;;;;;7.63;2.22;;;24.70;55.30;;;;;;5001812;28;20037;-43
2022/06/19 09:10:23;;;;;;;9.43;2.33;;;24.40;58.10;;;;;;4997725;28;20050;-48
2022/06/19 09:13:04;;;;;;;9.68;2.58;;;24.70;53.00;;;;;;4998828;28;20054;-57
2022/06/19 09:15:37;;;;;;;8.00;2.10;;;24.60;54.80;;;;;;5004030;28;20576;-52
2022/06/19 09:18:05;;;;;;;8.30;2.58;;;24.40;53.30;;;;;;4996292;28;20042;-53
2022/06/19 09:20:43;;;;;;;7.25;2.03;;;23.30;52.70;;;;;;4995723;28;20041;-52
2022/06/19 09:23:21;;;;;;;8.67;1.87;;;21.80;55.40;;;;;;5010965;28;20105;-56
2022/06/19 09:26:01;;;;;;;7.90;2.15;;;21.00;61.00;;;;;;5011178;28;20121;-58
2022/06/19 09:28:51;;;;;;;12.20;2.30;;;20.30;62.80;;;;;;5010880;28;20056;-46
2022/06/19 09:31:28;;;;;;;8.82;2.08;;;19.50;62.60;;;;;;5005655;28;20045;-54
2022/06/19 09:34:16;;;;;;;11.73;2.40;;;19.00;67.00;;;;;;5009668;28;20104;-52
2022/06/19 09:36:51;;;;;;;7.22;1.98;;;18.50;67.60;;;;;;5009917;28;20022;-55
2022/06/19 09:39:26;;;;;;;11.50;2.15;;;18.30;71.90;;;;;;5003836;28;20030;-44
2022/06/19 09:41:59;;;;;;;10.60;2.28;;;18.00;70.10;;;;;;5007522;28;20018;-51
2022/06/19 09:44:36;;;;;;;9.43;2.72;;;17.80;72.30;;;;;;5003391;28;20482;-56
2022/06/19 09:47:07;;;;;;;8.10;2.08;;;17.80;74.20;;;;;;4997473;28;20027;-58
2022/06/19 09:50:18;;;;;;;8.55;1.92;;;17.80;74.30;;;;;;5012128;28;20057;-48
2022/06/19 09:52:53;;;;;;;8.38;2.25;;;17.70;71.60;;;;;;4978423;28;20069;-57
2022/06/19 09:55:42;;;;;;;6.45;1.90;;;17.80;74.40;;;;;;5011842;28;20030;-54
2022/06/19 09:58:25;;;;;;;7.00;1.85;;;17.70;76.10;;;;;;5008770;28;20105;-55
2022/06/19 10:00:57;;;;;;;6.03;1.90;;;17.60;74.00;;;;;;5004772;28;20104;-56
2022/06/19 10:03:29;;;;;;;8.48;1.95;;;17.50;73.70;;;;;;5005569;28;20038;-54
2022/06/19 10:06:07;;;;;;;12.27;2.67;;;17.50;76.00;;;;;;4994097;28;20109;-52
2022/06/19 10:08:43;;;;;;;10.63;2.20;;;17.40;75.30;;;;;;5005556;28;20113;-57
2022/06/19 10:11:20;;;;;;;9.55;2.22;;;17.30;73.70;;;;;;5006180;28;20034;-56
2022/06/19 10:13:54;;;;;;;7.45;2.20;;;17.20;74.40;;;;;;5011951;28;20503;-53
2022/06/19 10:16:44;;;;;;;10.07;2.28;;;17.10;73.90;;;;;;5011620;28;20030;-53
2022/06/19 10:19:19;;;;;;;9.90;2.45;;;17.00;73.90;;;;;;5006296;28;20033;-54
2022/06/19 10:22:15;;;;;;;8.10;2.38;;;17.00;76.00;;;;;;5011397;28;20034;-52
2022/06/19 10:25:10;;;;;;;10.23;2.28;;;17.10;76.20;;;;;;5011820;28;20492;-53
2022/06/19 10:27:59;;;;;;;12.05;2.08;;;17.10;76.40;;;;;;5001082;28;20451;-56
2022/06/19 10:30:51;;;;;;;8.77;2.00;;;17.20;72.90;;;;;;5011267;28;20076;-49
2022/06/19 10:33:47;;;;;;;8.73;2.30;;;17.20;73.30;;;;;;5009617;28;20745;-54
2022/06/19 10:36:13;;;;;;;6.82;1.60;;;17.40;73.70;;;;;;5007163;28;20092;-55
2022/06/19 10:39:06;;;;;;;8.57;1.73;;;17.40;73.80;;;;;;5006232;28;20034;-50
2022/06/19 10:42:00;;;;;;;11.48;2.53;;;17.50;74.80;;;;;;5004910;28;20278;-58
2022/06/19 10:44:29;;;;;;;9.32;2.22;;;17.40;72.30;;;;;;5005916;28;20034;-50
2022/06/19 10:47:08;;;;;;;8.30;1.97;;;17.50;76.60;;;;;;5009148;28;20089;-48
2022/06/19 10:49:54;;;;;;;8.95;2.25;;;17.40;71.80;;;;;;5008177;28;20018;-53
2022/06/19 10:52:44;;;;;;;7.22;1.67;;;17.40;71.40;;;;;;5007400;28;20109;-56
2022/06/19 10:55:12;;;;;;;;;;;17.40;75.70;;;;;;4999651;28;20053;-58
2022/06/19 10:58:11;;;;;;;7.47;2.30;;;17.40;75.10;;;;;;4997295;28;19913;-58
2022/06/19 11:00:37;;;;;;;11.10;1.98;;;17.30;72.70;;;;;;5007780;28;20018;-53
2022/06/19 11:06:26;;;;;;;7.35;2.10;;;17.00;69.10;;;;;;4996132;28;20032;-45
2022/06/19 11:09:00;;;;;;;12.07;2.75;;;16.90;76.00;;;;;;5007440;28;20060;-45
2022/06/19 11:11:28;;;;;;;11.65;2.45;;;16.80;73.00;;;;;;5006613;28;20046;-50
2022/06/19 11:14:12;;;;;;;7.32;1.95;;;16.80;72.30;;;;;;5011025;28;20049;-52
2022/06/19 11:17:00;;;;;;;12.73;2.20;;;16.90;73.70;;;;;;5010468;28;20061;-47
2022/06/19 11:19:46;;;;;;;10.15;2.88;;;17.00;76.90;;;;;;5009656;28;20021;-55
2022/06/19 11:22:33;;;;;;;8.55;2.60;;;17.20;77.50;;;;;;5008198;28;20485;-57
2022/06/19 11:25:21;;;;;;;8.57;2.30;;;17.40;73.40;;;;;;5011022;28;20040;-55
2022/06/19 11:28:09;;;;;;;9.80;3.05;;;17.80;82.20;;;;;;5010545;28;20037;-49
2022/06/19 11:30:39;;;;;;;11.05;2.83;;;18.10;78.90;;;;;;5011081;28;20200;-46
2022/06/19 11:33:12;;;;;;;9.60;3.03;;;18.40;78.50;;;;;;5010635;28;20468;-54
2022/06/19 11:35:43;;;;;;;13.23;2.78;;;18.80;72.50;;;;;;5011057;28;20124;-49
2022/06/19 11:38:11;;;;;;;8.63;2.33;;;19.20;74.70;;;;;;5008991;28;20436;-53
2022/06/19 11:40:40;;;;;;;8.23;2.00;;;19.30;69.80;;;;;;5009123;28;20025;-51
2022/06/19 11:43:26;;;;;;;10.70;1.95;;;19.20;68.80;;;;;;5008881;28;20022;-52
2022/06/19 11:46:05;;;;;;;10.05;2.10;;;19.00;68.40;;;;;;5008747;28;20084;-49
2022/06/19 11:48:31;;;;;;;7.88;2.00;;;18.80;69.30;;;;;;5008842;28;20118;-56
2022/06/19 11:50:58;;;;;;;10.45;2.00;;;18.70;69.80;;;;;;5009238;28;20577;-57
2022/06/19 11:53:28;;;;;;;8.90;2.20;;;18.60;66.20;;;;;;5009806;28;20018;-52
2022/06/19 11:56:42;;;;;;;10.27;2.03;;;18.50;66.80;;;;;;5011614;28;20109;-48
2022/06/19 11:59:35;;;;;;;7.75;2.08;;;18.50;69.90;;;;;;4998603;28;20037;-54
2022/06/19 12:02:20;;;;;;;5.47;1.67;;;18.60;68.10;;;;;;5009779;28;20030;-55
2022/06/19 12:04:53;;;;;;;7.90;1.80;;;18.60;69.70;;;;;;5011103;28;20029;-48
2022/06/19 12:07:21;;;;;;;6.38;1.63;;;18.70;70.10;;;;;;5013421;28;20116;-55
2022/06/19 12:10:22;;;;;;;8.63;1.92;;;18.60;64.90;;;;;;5013548;28;20014;-49
2022/06/19 12:12:59;;;;;;;8.55;1.65;;;18.90;65.30;;;;;;5013201;28;20104;-48
2022/06/19 12:15:31;;;;;;;8.02;1.73;;;19.00;64.60;;;;;;5013636;28;20022;-55
2022/06/19 12:18:01;;;;;;;7.70;1.67;;;19.40;66.10;;;;;;5013043;28;20030;-46
2022/06/19 12:20:30;;;;;;;11.38;2.00;;;19.70;63.90;;;;;;5010813;28;20106;-49
2022/06/19 12:23:12;;;;;;;9.48;2.10;;;19.60;64.80;;;;;;5013600;28;20026;-46
2022/06/19 12:25:58;;;;;;;8.57;2.35;;;19.80;64.30;;;;;;5014162;28;20065;-52
2022/06/19 12:28:40;;;;;;;7.68;1.52;;;20.20;63.10;;;;;;5010814;28;20034;-52
2022/06/19 12:31:09;;;;;;;9.02;1.80;;;20.80;64.40;;;;;;5008517;28;20052;-47
2022/06/19 12:33:53;;;;;;;9.63;2.13;;;21.00;58.40;;;;;;5012404;28;20029;-48
2022/06/19 12:36:22;;;;;;;7.43;1.55;;;21.10;58.30;;;;;;5012440;28;20026;-51
2022/06/19 12:38:50;;;;;;;13.23;1.95;;;21.20;58.70;;;;;;5012495;28;20034;-48
2022/06/19 12:41:40;;;;;;;9.15;1.80;;;20.90;57.80;;;;;;5008085;28;20088;-49
2022/06/19 12:44:30;;;;;;;8.68;1.98;;;20.80;59.00;;;;;;5010547;28;20026;-52
2022/06/19 12:47:05;;;;;;;7.28;1.80;;;20.90;61.20;;;;;;5011858;28;20022;-47
2022/06/19 12:50:01;;;;;;;7.57;1.60;;;21.10;58.80;;;;;;5012087;28;20026;-51
2022/06/19 12:52:30;;;;;;;8.10;1.92;;;21.10;59.20;;;;;;5012104;28;20533;-53
2022/06/19 12:55:33;;;;;;;7.73;1.60;;;21.30;60.20;;;;;;5012121;28;20046;-54
2022/06/19 12:58:40;;;;;;;8.70;2.03;;;21.40;60.30;;;;;;5009353;28;20033;-51
2022/06/19 13:01:35;;;;;;;7.80;1.90;;;21.50;58.90;;;;;;5011040;28;20034;-55
2022/06/19 13:04:29;;;;;;;10.80;2.22;;;21.30;58.60;;;;;;5009722;28;20026;-53
2022/06/19 13:07:08;;;;;;;9.10;2.00;;;21.20;60.30;;;;;;5011105;28;20018;-49
2022/06/19 13:09:56;;;;;;;7.63;1.98;;;21.00;60.20;;;;;;5011572;28;20029;-51
2022/06/19 13:13:01;;;;;;;8.75;2.03;;;20.80;60.30;;;;;;5011704;28;20034;-53
2022/06/19 13:15:45;;;;;;;10.45;2.03;;;20.50;60.00;;;;;;4987293;28;20025;-54
2022/06/19 13:18:38;;;;;;;8.48;1.98;;;20.50;61.60;;;;;;5011435;28;20033;-49